sensor_id;sensor_type;location;lat;lon;timestamp;pressure;altitude;pressure_sealevel;temperature;humidity
62710;BME280;48770;51.624;5.886;2023-09-19T00:00:14;100616.75;;;24.15;44.67
62710;BME280;48770;51.624;5.886;2023-09-19T00:02:40;100611.97;;;24.16;44.61
62710;BME280;48770;51.624;5.886;2023-09-19T00:05:05;100615.56;;;24.16;44.35
62710;BME280;48770;51.624;5.886;2023-09-19T00:07:31;100629.53;;;24.16;44.67
62710;BME280;48770;51.624;5.886;2023-09-19T00:09:56;100626.75;;;24.16;44.36
62710;BME280;48770;51.624;5.886;2023-09-19T00:12:22;100631.53;;;24.16;44.48
62710;BME280;48770;51.624;5.886;2023-09-19T00:14:47;100635.50;;;24.15;44.49
62710;BME280;48770;51.624;5.886;2023-09-19T00:17:13;100646.28;;;24.16;44.61
62710;BME280;48770;51.624;5.886;2023-09-19T00:19:38;100644.69;;;24.15;44.71
62710;BME280;48770;51.624;5.886;2023-09-19T00:22:03;100643.88;;;24.15;44.53
62710;BME280;48770;51.624;5.886;2023-09-19T00:24:29;100637.13;;;24.16;44.34
62710;BME280;48770;51.624;5.886;2023-09-19T00:26:55;100639.53;;;24.17;44.38
62710;BME280;48770;51.624;5.886;2023-09-19T00:29:21;100638.28;;;24.15;44.37
62710;BME280;48770;51.624;5.886;2023-09-19T00:31:48;100643.88;;;24.15;44.18
62710;BME280;48770;51.624;5.886;2023-09-19T00:34:14;100649.47;;;24.15;44.19
62710;BME280;48770;51.624;5.886;2023-09-19T00:36:39;100643.88;;;24.15;44.37
62710;BME280;48770;51.624;5.886;2023-09-19T00:39:06;100651.47;;;24.14;44.07
62710;BME280;48770;51.624;5.886;2023-09-19T00:41:34;100650.28;;;24.15;44.01
62710;BME280;48770;51.624;5.886;2023-09-19T00:44:03;100656.25;;;24.14;44.18
62710;BME280;48770;51.624;5.886;2023-09-19T00:46:29;100657.03;;;24.14;44.14
62710;BME280;48770;51.624;5.886;2023-09-19T00:48:56;100664.25;;;24.15;44.38
62710;BME280;48770;51.624;5.886;2023-09-19T00:51:22;100671.81;;;24.15;44.47
62710;BME280;48770;51.624;5.886;2023-09-19T00:53:48;100662.63;;;24.14;44.21
62710;BME280;48770;51.624;5.886;2023-09-19T00:56:14;100678.22;;;24.15;43.88
62710;BME280;48770;51.624;5.886;2023-09-19T00:58:43;100678.59;;;24.14;44.13
62710;BME280;48770;51.624;5.886;2023-09-19T01:01:09;100678.97;;;24.12;44.37
62710;BME280;48770;51.624;5.886;2023-09-19T01:03:37;100680.59;;;24.13;44.29
62710;BME280;48770;51.624;5.886;2023-09-19T01:06:02;100685.38;;;24.13;44.09
62710;BME280;48770;51.624;5.886;2023-09-19T01:08:27;100685.38;;;24.13;44.25
62710;BME280;48770;51.624;5.886;2023-09-19T01:11:09;100694.94;;;24.12;44.07
62710;BME280;48770;51.624;5.886;2023-09-19T01:13:51;100695.31;;;24.10;43.91
62710;BME280;48770;51.624;5.886;2023-09-19T01:16:36;100692.47;;;24.07;44.05
62710;BME280;48770;51.624;5.886;2023-09-19T01:22:02;100701.22;;;24.05;43.69
62710;BME280;48770;51.624;5.886;2023-09-19T01:25:07;100715.19;;;24.05;43.78
62710;BME280;48770;51.624;5.886;2023-09-19T01:30:35;100711.59;;;24.05;43.68
62710;BME280;48770;51.624;5.886;2023-09-19T01:33:05;100711.59;;;24.05;43.63
62710;BME280;48770;51.624;5.886;2023-09-19T01:35:31;100707.63;;;24.06;43.66
62710;BME280;48770;51.624;5.886;2023-09-19T01:37:59;100710.03;;;24.07;44.02
62710;BME280;48770;51.624;5.886;2023-09-19T01:40:24;100716.81;;;24.06;43.88
62710;BME280;48770;51.624;5.886;2023-09-19T01:42:58;100713.22;;;24.06;43.71
62710;BME280;48770;51.624;5.886;2023-09-19T01:48:25;100717.94;;;24.02;43.64
62710;BME280;48770;51.624;5.886;2023-09-19T01:51:02;100728.75;;;24.03;43.57
62710;BME280;48770;51.624;5.886;2023-09-19T01:56:05;100726.75;;;24.04;43.37
62710;BME280;48770;51.624;5.886;2023-09-19T01:58:40;100724.75;;;24.04;43.37
62710;BME280;48770;51.624;5.886;2023-09-19T02:01:11;100727.13;;;24.02;43.30
62710;BME280;48770;51.624;5.886;2023-09-19T02:03:40;100717.13;;;24.01;42.97
62710;BME280;48770;51.624;5.886;2023-09-19T02:06:06;100726.31;;;24.02;42.99
62710;BME280;48770;51.624;5.886;2023-09-19T02:08:36;100720.72;;;24.02;43.00
62710;BME280;48770;51.624;5.886;2023-09-19T02:11:02;100718.75;;;24.02;43.09
62710;BME280;48770;51.624;5.886;2023-09-19T02:13:27;100731.09;;;24.01;43.00
62710;BME280;48770;51.624;5.886;2023-09-19T02:15:53;100729.91;;;24.02;43.17
62710;BME280;48770;51.624;5.886;2023-09-19T02:18:19;100725.50;;;24.01;42.97
62710;BME280;48770;51.624;5.886;2023-09-19T02:20:45;100723.53;;;24.02;42.68
62710;BME280;48770;51.624;5.886;2023-09-19T02:23:12;100727.13;;;24.02;43.04
62710;BME280;48770;51.624;5.886;2023-09-19T02:25:38;100737.88;;;24.00;42.62
62710;BME280;48770;51.624;5.886;2023-09-19T02:28:04;100737.88;;;24.00;42.43
62710;BME280;48770;51.624;5.886;2023-09-19T02:30:30;100733.47;;;23.99;42.77
62710;BME280;48770;51.624;5.886;2023-09-19T02:32:56;100743.03;;;23.98;42.51
62710;BME280;48770;51.624;5.886;2023-09-19T02:35:21;100739.44;;;23.97;42.38
62710;BME280;48770;51.624;5.886;2023-09-19T02:37:47;100735.03;;;23.96;42.38
62710;BME280;48770;51.624;5.886;2023-09-19T02:40:13;100741.41;;;23.97;42.29
62710;BME280;48770;51.624;5.886;2023-09-19T02:42:49;100748.19;;;23.96;42.50
62710;BME280;48770;51.624;5.886;2023-09-19T02:45:16;100743.41;;;23.96;42.19
62710;BME280;48770;51.624;5.886;2023-09-19T02:47:43;100747.38;;;23.95;42.13
62710;BME280;48770;51.624;5.886;2023-09-19T02:50:09;100757.38;;;23.96;42.42
62710;BME280;48770;51.624;5.886;2023-09-19T02:52:36;100758.56;;;23.95;41.96
62710;BME280;48770;51.624;5.886;2023-09-19T02:55:01;100752.16;;;23.95;42.13
62710;BME280;48770;51.624;5.886;2023-09-19T02:57:29;100753.31;;;23.94;41.94
62710;BME280;48770;51.624;5.886;2023-09-19T02:59:54;100746.13;;;23.93;42.03
62710;BME280;48770;51.624;5.886;2023-09-19T03:02:19;100743.34;;;23.93;41.90
62710;BME280;48770;51.624;5.886;2023-09-19T03:04:45;100750.09;;;23.92;42.05
62710;BME280;48770;51.624;5.886;2023-09-19T03:07:12;100752.09;;;23.91;42.20
62710;BME280;48770;51.624;5.886;2023-09-19T03:09:37;100756.88;;;23.91;41.86
62710;BME280;48770;51.624;5.886;2023-09-19T03:12:03;100753.28;;;23.90;42.16
62710;BME280;48770;51.624;5.886;2023-09-19T03:14:29;100754.06;;;23.91;41.64
62710;BME280;48770;51.624;5.886;2023-09-19T03:17:00;100764.81;;;23.89;41.93
62710;BME280;48770;51.624;5.886;2023-09-19T03:19:26;100760.41;;;23.88;41.68
62710;BME280;48770;51.624;5.886;2023-09-19T03:21:52;100750.41;;;23.87;41.59
62710;BME280;48770;51.624;5.886;2023-09-19T03:24:18;100763.19;;;23.88;41.68
62710;BME280;48770;51.624;5.886;2023-09-19T03:26:44;100756.00;;;23.87;41.86
62710;BME280;48770;51.624;5.886;2023-09-19T03:29:10;100767.19;;;23.87;41.65
62710;BME280;48770;51.624;5.886;2023-09-19T03:31:36;100761.97;;;23.85;41.61
62710;BME280;48770;51.624;5.886;2023-09-19T03:34:04;100763.97;;;23.85;41.28
62710;BME280;48770;51.624;5.886;2023-09-19T03:36:30;100761.16;;;23.85;41.35
62710;BME280;48770;51.624;5.886;2023-09-19T03:38:55;100763.16;;;23.84;41.24
62710;BME280;48770;51.624;5.886;2023-09-19T03:41:20;100753.97;;;23.84;41.39
62710;BME280;48770;51.624;5.886;2023-09-19T03:43:46;100758.75;;;23.83;41.42
62710;BME280;48770;51.624;5.886;2023-09-19T03:46:12;100760.72;;;23.83;41.20
62710;BME280;48770;51.624;5.886;2023-09-19T03:48:40;100760.72;;;23.83;41.02
62710;BME280;48770;51.624;5.886;2023-09-19T03:51:05;100755.53;;;23.81;41.36
62710;BME280;48770;51.624;5.886;2023-09-19T03:53:31;100746.34;;;23.81;40.93
62710;BME280;48770;51.624;5.886;2023-09-19T03:55:56;100744.75;;;23.80;41.04
62710;BME280;48770;51.624;5.886;2023-09-19T03:58:22;100749.13;;;23.81;40.73
62710;BME280;48770;51.624;5.886;2023-09-19T04:00:47;100745.53;;;23.80;41.05
62710;BME280;48770;51.624;5.886;2023-09-19T04:03:15;100750.31;;;23.80;40.78
62710;BME280;48770;51.624;5.886;2023-09-19T04:05:46;100738.34;;;23.79;40.77
62710;BME280;48770;51.624;5.886;2023-09-19T04:08:11;100741.50;;;23.78;40.75
62710;BME280;48770;51.624;5.886;2023-09-19T04:10:37;100750.69;;;23.78;40.96
62710;BME280;48770;51.624;5.886;2023-09-19T04:13:03;100759.06;;;23.78;40.72
62710;BME280;48770;51.624;5.886;2023-09-19T04:15:29;100753.50;;;23.78;40.91
62710;BME280;48770;51.624;5.886;2023-09-19T04:17:54;100749.47;;;23.76;40.88
62710;BME280;48770;51.624;5.886;2023-09-19T04:20:20;100746.66;;;23.76;40.71
62710;BME280;48770;51.624;5.886;2023-09-19T04:22:48;100748.66;;;23.75;40.66
62710;BME280;48770;51.624;5.886;2023-09-19T04:25:13;100753.44;;;23.75;40.97
62710;BME280;48770;51.624;5.886;2023-09-19T04:27:39;100761.81;;;23.75;40.89
62710;BME280;48770;51.624;5.886;2023-09-19T04:30:06;100763.81;;;23.74;40.64
62710;BME280;48770;51.624;5.886;2023-09-19T04:32:35;100766.59;;;23.74;40.58
62710;BME280;48770;51.624;5.886;2023-09-19T04:35:01;100776.16;;;23.73;40.71
62710;BME280;48770;51.624;5.886;2023-09-19T04:37:30;100769.75;;;23.73;40.83
62710;BME280;48770;51.624;5.886;2023-09-19T04:39:55;100783.72;;;23.73;41.04
62710;BME280;48770;51.624;5.886;2023-09-19T04:42:21;100799.66;;;23.72;40.77
62710;BME280;48770;51.624;5.886;2023-09-19T04:44:50;100799.66;;;23.72;40.80
62710;BME280;48770;51.624;5.886;2023-09-19T04:47:17;100798.84;;;23.72;40.86
62710;BME280;48770;51.624;5.886;2023-09-19T04:49:43;100809.22;;;23.71;40.93
62710;BME280;48770;51.624;5.886;2023-09-19T04:52:08;100817.97;;;23.70;41.10
62710;BME280;48770;51.624;5.886;2023-09-19T04:54:33;100822.38;;;23.71;40.69
62710;BME280;48770;51.624;5.886;2023-09-19T04:56:59;100827.53;;;23.68;40.51
62710;BME280;48770;51.624;5.886;2023-09-19T04:59:25;100829.13;;;23.70;40.86
62710;BME280;48770;51.624;5.886;2023-09-19T05:01:50;100829.13;;;23.70;40.63
62710;BME280;48770;51.624;5.886;2023-09-19T05:04:16;100824.72;;;23.68;40.85
62710;BME280;48770;51.624;5.886;2023-09-19T05:06:41;100836.25;;;23.67;41.07
62710;BME280;48770;51.624;5.886;2023-09-19T05:09:06;100829.03;;;23.66;41.02
62710;BME280;48770;51.624;5.886;2023-09-19T05:11:33;100832.28;;;23.68;41.09
62710;BME280;48770;51.624;5.886;2023-09-19T05:13:59;100829.84;;;23.66;40.86
62710;BME280;48770;51.624;5.886;2023-09-19T05:16:29;100828.25;;;23.65;40.84
62710;BME280;48770;51.624;5.886;2023-09-19T05:18:54;100827.06;;;23.66;40.63
62710;BME280;48770;51.624;5.886;2023-09-19T05:21:20;100822.66;;;23.65;41.02
62710;BME280;48770;51.624;5.886;2023-09-19T05:23:45;100827.44;;;23.65;40.87
62710;BME280;48770;51.624;5.886;2023-09-19T05:26:10;100830.22;;;23.65;40.68
62710;BME280;48770;51.624;5.886;2023-09-19T05:28:36;100827.81;;;23.63;40.59
62710;BME280;48770;51.624;5.886;2023-09-19T05:31:03;100840.59;;;23.64;40.63
62710;BME280;48770;51.624;5.886;2023-09-19T05:33:28;100837.34;;;23.62;41.24
62710;BME280;48770;51.624;5.886;2023-09-19T05:35:56;100841.75;;;23.63;40.88
62710;BME280;48770;51.624;5.886;2023-09-19T05:38:21;100831.78;;;23.62;40.93
62710;BME280;48770;51.624;5.886;2023-09-19T05:40:46;100839.34;;;23.62;41.28
62710;BME280;48770;51.624;5.886;2023-09-19T05:43:12;100830.16;;;23.61;40.96
62710;BME280;48770;51.624;5.886;2023-09-19T05:45:39;100832.16;;;23.61;40.74
62710;BME280;48770;51.624;5.886;2023-09-19T05:48:10;100838.53;;;23.61;41.24
62710;BME280;48770;51.624;5.886;2023-09-19T05:50:37;100831.34;;;23.60;40.99
62710;BME280;48770;51.624;5.886;2023-09-19T05:53:02;100834.13;;;23.60;41.17
62710;BME280;48770;51.624;5.886;2023-09-19T05:55:29;100832.97;;;23.61;41.28
62710;BME280;48770;51.624;5.886;2023-09-19T05:57:55;100836.13;;;23.60;40.83
62710;BME280;48770;51.624;5.886;2023-09-19T06:00:21;100829.72;;;23.59;40.79
62710;BME280;48770;51.624;5.886;2023-09-19T06:02:54;100841.69;;;23.60;41.10
62710;BME280;48770;51.624;5.886;2023-09-19T06:05:21;100832.53;;;23.59;40.79
62710;BME280;48770;51.624;5.886;2023-09-19T06:07:46;100834.50;;;23.59;41.09
62710;BME280;48770;51.624;5.886;2023-09-19T06:10:12;100830.91;;;23.58;41.00
62710;BME280;48770;51.624;5.886;2023-09-19T06:12:41;100842.06;;;23.58;41.03
62710;BME280;48770;51.624;5.886;2023-09-19T06:15:10;100837.66;;;23.57;41.46
62710;BME280;48770;51.624;5.886;2023-09-19T06:17:50;100833.69;;;23.58;41.01
62710;BME280;48770;51.624;5.886;2023-09-19T06:20:16;100836.06;;;23.56;41.13
62710;BME280;48770;51.624;5.886;2023-09-19T06:22:42;100832.91;;;23.58;41.35
62710;BME280;48770;51.624;5.886;2023-09-19T06:25:12;100829.31;;;23.57;41.17
62710;BME280;48770;51.624;5.886;2023-09-19T06:27:41;100843.25;;;23.57;41.48
62710;BME280;48770;51.624;5.886;2023-09-19T06:30:08;100836.06;;;23.56;41.34
62710;BME280;48770;51.624;5.886;2023-09-19T06:32:34;100834.88;;;23.57;41.13
62710;BME280;48770;51.624;5.886;2023-09-19T06:34:59;100844.44;;;23.56;41.16
62710;BME280;48770;51.624;5.886;2023-09-19T06:37:27;100848.84;;;23.57;41.21
62710;BME280;48770;51.624;5.886;2023-09-19T06:39:53;100852.81;;;23.56;41.33
62710;BME280;48770;51.624;5.886;2023-09-19T06:42:18;100850.00;;;23.56;41.57
62710;BME280;48770;51.624;5.886;2023-09-19T06:44:44;100852.00;;;23.56;41.21
62710;BME280;48770;51.624;5.886;2023-09-19T06:47:09;100853.97;;;23.55;41.37
62710;BME280;48770;51.624;5.886;2023-09-19T06:49:35;100854.41;;;23.57;41.16
62710;BME280;48770;51.624;5.886;2023-09-19T06:52:01;100866.75;;;23.56;41.61
62710;BME280;48770;51.624;5.886;2023-09-19T06:54:27;100873.50;;;23.55;41.55
62710;BME280;48770;51.624;5.886;2023-09-19T06:56:59;100874.34;;;23.56;41.52
62710;BME280;48770;51.624;5.886;2023-09-19T06:59:25;100873.50;;;23.55;41.60
62710;BME280;48770;51.624;5.886;2023-09-19T07:01:50;100870.69;;;23.55;41.21
62710;BME280;48770;51.624;5.886;2023-09-19T07:04:18;100867.09;;;23.55;41.74
62710;BME280;48770;51.624;5.886;2023-09-19T07:06:50;100867.91;;;23.55;41.68
62710;BME280;48770;51.624;5.886;2023-09-19T07:09:16;100861.19;;;23.56;41.62
62710;BME280;48770;51.624;5.886;2023-09-19T07:11:41;100860.38;;;23.56;41.71
62710;BME280;48770;51.624;5.886;2023-09-19T07:14:07;100865.13;;;23.55;41.88
62710;BME280;48770;51.624;5.886;2023-09-19T07:16:33;100867.91;;;23.55;41.65
62710;BME280;48770;51.624;5.886;2023-09-19T07:18:58;100869.56;;;23.56;42.00
62710;BME280;48770;51.624;5.886;2023-09-19T07:21:24;100873.50;;;23.55;41.79
62710;BME280;48770;51.624;5.886;2023-09-19T07:23:49;100874.34;;;23.56;41.87
62710;BME280;48770;51.624;5.886;2023-09-19T07:26:15;100879.91;;;23.56;41.66
62710;BME280;48770;51.624;5.886;2023-09-19T07:28:41;100883.50;;;23.56;41.91
62710;BME280;48770;51.624;5.886;2023-09-19T07:31:06;100885.13;;;23.57;41.78
62710;BME280;48770;51.624;5.886;2023-09-19T07:33:35;100881.06;;;23.55;41.85
62710;BME280;48770;51.624;5.886;2023-09-19T07:36:01;100874.34;;;23.56;41.98
62710;BME280;48770;51.624;5.886;2023-09-19T07:38:26;100886.66;;;23.55;42.15
62710;BME280;48770;51.624;5.886;2023-09-19T07:40:52;100870.28;;;23.53;41.76
62710;BME280;48770;51.624;5.886;2023-09-19T07:43:17;100875.84;;;23.53;41.93
62710;BME280;48770;51.624;5.886;2023-09-19T07:45:43;100879.06;;;23.55;42.01
62710;BME280;48770;51.624;5.886;2023-09-19T07:48:08;100874.66;;;23.54;41.76
62710;BME280;48770;51.624;5.886;2023-09-19T07:50:39;100884.66;;;23.55;41.81
62710;BME280;48770;51.624;5.886;2023-09-19T07:53:05;100883.84;;;23.55;42.16
62710;BME280;48770;51.624;5.886;2023-09-19T07:55:30;100886.66;;;23.55;42.19
62710;BME280;48770;51.624;5.886;2023-09-19T07:57:55;100885.84;;;23.54;42.22
62710;BME280;48770;51.624;5.886;2023-09-19T08:00:21;100883.84;;;23.55;42.00
62710;BME280;48770;51.624;5.886;2023-09-19T08:02:47;100895.81;;;23.55;42.41
62710;BME280;48770;51.624;5.886;2023-09-19T08:05:17;100877.47;;;23.54;41.92
62710;BME280;48770;51.624;5.886;2023-09-19T08:07:45;100883.03;;;23.54;41.98
62710;BME280;48770;51.624;5.886;2023-09-19T08:10:17;100887.44;;;23.55;42.38
62710;BME280;48770;51.624;5.886;2023-09-19T08:12:46;100887.09;;;23.57;41.93
62710;BME280;48770;51.624;5.886;2023-09-19T08:15:16;100890.72;;;23.57;42.22
62710;BME280;48770;51.624;5.886;2023-09-19T08:17:42;100896.66;;;23.56;42.33
62710;BME280;48770;51.624;5.886;2023-09-19T08:20:08;100888.28;;;23.56;42.13
62710;BME280;48770;51.624;5.886;2023-09-19T08:22:42;100897.47;;;23.56;42.34
62710;BME280;48770;51.624;5.886;2023-09-19T08:25:07;100889.09;;;23.56;41.93
62710;BME280;48770;51.624;5.886;2023-09-19T08:27:33;100884.66;;;23.55;42.46
62710;BME280;48770;51.624;5.886;2023-09-19T08:30:01;100889.09;;;23.56;42.51
62710;BME280;48770;51.624;5.886;2023-09-19T08:32:28;100900.69;;;23.58;42.32
62710;BME280;48770;51.624;5.886;2023-09-19T08:34:54;100899.88;;;23.58;42.33
62710;BME280;48770;51.624;5.886;2023-09-19T08:37:19;100897.09;;;23.58;42.19
62710;BME280;48770;51.624;5.886;2023-09-19T08:39:44;100894.31;;;23.58;41.92
62710;BME280;48770;51.624;5.886;2023-09-19T08:42:10;100895.91;;;23.59;42.42
62710;BME280;48770;51.624;5.886;2023-09-19T08:44:37;100887.53;;;23.59;42.36
62710;BME280;48770;51.624;5.886;2023-09-19T08:47:10;100901.50;;;23.59;42.31
62710;BME280;48770;51.624;5.886;2023-09-19T08:49:48;100887.91;;;23.38;43.04
62710;BME280;48770;51.624;5.886;2023-09-19T08:52:32;100891.28;;;23.47;42.51
62710;BME280;48770;51.624;5.886;2023-09-19T08:55:02;100894.94;;;23.51;42.24
62710;BME280;48770;51.624;5.886;2023-09-19T08:57:33;100893.41;;;23.54;42.18
62710;BME280;48770;51.624;5.886;2023-09-19T09:00:01;100895.81;;;23.55;42.48
62710;BME280;48770;51.624;5.886;2023-09-19T09:02:31;100893.50;;;23.57;42.24
62710;BME280;48770;51.624;5.886;2023-09-19T09:04:59;100894.69;;;23.56;42.44
62710;BME280;48770;51.624;5.886;2023-09-19T09:07:25;100900.69;;;23.58;42.38
62710;BME280;48770;51.624;5.886;2023-09-19T09:09:52;100889.16;;;23.60;42.64
62710;BME280;48770;51.624;5.886;2023-09-19T09:12:18;100897.53;;;23.60;42.30
62710;BME280;48770;51.624;5.886;2023-09-19T09:14:46;100898.34;;;23.60;42.32
62710;BME280;48770;51.624;5.886;2023-09-19T09:17:16;100895.53;;;23.60;42.49
62710;BME280;48770;51.624;5.886;2023-09-19T09:19:46;100881.59;;;23.60;42.07
62710;BME280;48770;51.624;5.886;2023-09-19T09:22:12;100878.78;;;23.60;42.44
62710;BME280;48770;51.624;5.886;2023-09-19T09:24:53;100880.78;;;23.60;42.13
62710;BME280;48770;51.624;5.886;2023-09-19T09:27:20;100894.38;;;23.61;42.50
62710;BME280;48770;51.624;5.886;2023-09-19T09:29:47;100902.75;;;23.61;42.18
62710;BME280;48770;51.624;5.886;2023-09-19T09:34:45;100905.53;;;23.61;42.60
62710;BME280;48770;51.624;5.886;2023-09-19T09:37:15;100899.94;;;23.61;42.36
62710;BME280;48770;51.624;5.886;2023-09-19T09:39:49;100889.59;;;23.62;42.45
62710;BME280;48770;51.624;5.886;2023-09-19T09:42:33;100889.97;;;23.60;42.43
62710;BME280;48770;51.624;5.886;2023-09-19T09:45:21;100875.19;;;23.60;42.11
62710;BME280;48770;51.624;5.886;2023-09-19T09:48:02;100877.19;;;23.59;42.29
62710;BME280;48770;51.624;5.886;2023-09-19T09:50:46;100867.63;;;23.60;42.29
62710;BME280;48770;51.624;5.886;2023-09-19T09:56:07;100860.06;;;23.61;42.26
62710;BME280;48770;51.624;5.886;2023-09-19T09:58:37;100873.22;;;23.60;42.18
62710;BME280;48770;51.624;5.886;2023-09-19T10:01:05;100880.78;;;23.60;42.51
62710;BME280;48770;51.624;5.886;2023-09-19T10:03:38;100869.25;;;23.61;42.24
62710;BME280;48770;51.624;5.886;2023-09-19T10:06:10;100879.22;;;23.62;42.39
62710;BME280;48770;51.624;5.886;2023-09-19T10:09:02;100874.81;;;23.61;42.04
62710;BME280;48770;51.624;5.886;2023-09-19T10:11:58;100869.63;;;23.60;42.18
62710;BME280;48770;51.624;5.886;2023-09-19T10:14:30;100870.44;;;23.60;42.38
62710;BME280;48770;51.624;5.886;2023-09-19T10:16:58;100885.63;;;23.63;41.91
62710;BME280;48770;51.624;5.886;2023-09-19T10:19:45;100868.44;;;23.61;42.05
62710;BME280;48770;51.624;5.886;2023-09-19T10:22:12;100873.22;;;23.60;42.27
62710;BME280;48770;51.624;5.886;2023-09-19T10:24:40;100867.69;;;23.64;42.05
62710;BME280;48770;51.624;5.886;2023-09-19T10:27:06;100865.72;;;23.64;42.00
62710;BME280;48770;51.624;5.886;2023-09-19T10:29:36;100867.31;;;23.65;41.86
62710;BME280;48770;51.624;5.886;2023-09-19T10:32:05;100872.91;;;23.65;41.95
62710;BME280;48770;51.624;5.886;2023-09-19T10:34:34;100861.75;;;23.65;41.75
62710;BME280;48770;51.624;5.886;2023-09-19T10:37:02;100856.16;;;23.65;42.17
62710;BME280;48770;51.624;5.886;2023-09-19T10:39:32;100868.94;;;23.66;41.76
62710;BME280;48770;51.624;5.886;2023-09-19T10:42:02;100866.13;;;23.66;41.82
62710;BME280;48770;51.624;5.886;2023-09-19T10:44:32;100886.50;;;23.67;42.28
62710;BME280;48770;51.624;5.886;2023-09-19T10:46:57;100874.97;;;23.68;41.75
62710;BME280;48770;51.624;5.886;2023-09-19T10:49:23;100872.19;;;23.68;41.70
62710;BME280;48770;51.624;5.886;2023-09-19T10:51:56;100857.06;;;23.70;41.70
62710;BME280;48770;51.624;5.886;2023-09-19T10:54:27;100863.44;;;23.70;42.07
62710;BME280;48770;51.624;5.886;2023-09-19T10:56:54;100876.59;;;23.70;42.00
62710;BME280;48770;51.624;5.886;2023-09-19T10:59:22;100867.84;;;23.71;42.08
62710;BME280;48770;51.624;5.886;2023-09-19T11:07:13;100869.84;;;23.71;41.87
62710;BME280;48770;51.624;5.886;2023-09-19T11:12:12;100848.72;;;23.73;41.65
62710;BME280;48770;51.624;5.886;2023-09-19T11:14:38;100852.75;;;23.76;41.70
62710;BME280;48770;51.624;5.886;2023-09-19T11:30:38;100822.47;;;23.78;41.77
62710;BME280;48770;51.624;5.886;2023-09-19T11:36:13;100812.50;;;23.77;41.80
62710;BME280;48770;51.624;5.886;2023-09-19T11:39:00;100814.09;;;23.78;41.90
62710;BME280;48770;51.624;5.886;2023-09-19T11:41:36;100803.38;;;23.80;42.00
62710;BME280;48770;51.624;5.886;2023-09-19T11:46:52;100806.22;;;23.83;41.61
62710;BME280;48770;51.624;5.886;2023-09-19T11:49:19;100803.47;;;23.87;41.46
62710;BME280;48770;51.624;5.886;2023-09-19T11:51:50;100801.13;;;23.89;41.33
62710;BME280;48770;51.624;5.886;2023-09-19T11:54:20;100786.78;;;23.90;41.53
62710;BME280;48770;51.624;5.886;2023-09-19T11:56:52;100790.38;;;23.91;41.26
62710;BME280;48770;51.624;5.886;2023-09-19T12:01:52;100779.28;;;23.94;41.02
62710;BME280;48770;51.624;5.886;2023-09-19T12:04:37;100794.06;;;23.95;40.98
62710;BME280;48770;51.624;5.886;2023-09-19T12:07:04;100778.91;;;23.96;41.11
62710;BME280;48770;51.624;5.886;2023-09-19T12:09:30;100784.13;;;23.97;41.11
62710;BME280;48770;51.624;5.886;2023-09-19T12:11:56;100784.94;;;23.98;41.05
62710;BME280;48770;51.624;5.886;2023-09-19T12:14:23;100781.75;;;23.99;41.22
62710;BME280;48770;51.624;5.886;2023-09-19T12:16:54;100778.59;;;24.01;41.28
62710;BME280;48770;51.624;5.886;2023-09-19T12:19:21;100792.97;;;24.03;40.98
62710;BME280;48770;51.624;5.886;2023-09-19T12:24:25;100782.66;;;24.07;40.96
62710;BME280;48770;51.624;5.886;2023-09-19T12:26:52;100781.91;;;24.10;41.04
62710;BME280;48770;51.624;5.886;2023-09-19T12:29:21;100783.13;;;24.13;40.89
62710;BME280;48770;51.624;5.886;2023-09-19T12:31:51;100776.00;;;24.15;40.72
62710;BME280;48770;51.624;5.886;2023-09-19T12:34:32;100777.59;;;24.16;40.76
62710;BME280;48770;51.624;5.886;2023-09-19T12:39:30;100785.22;;;24.19;40.56
62710;BME280;48770;51.624;5.886;2023-09-19T12:41:56;100782.88;;;24.21;40.73
62710;BME280;48770;51.624;5.886;2023-09-19T12:44:21;100759.78;;;24.24;40.72
62710;BME280;48770;51.624;5.886;2023-09-19T12:46:49;100774.16;;;24.26;40.92
62710;BME280;48770;51.624;5.886;2023-09-19T12:49:16;100784.53;;;24.26;40.60
62710;BME280;48770;51.624;5.886;2023-09-19T12:51:47;100789.75;;;24.27;40.36
62710;BME280;48770;51.624;5.886;2023-09-19T12:54:13;100793.38;;;24.28;40.65
62710;BME280;48770;51.624;5.886;2023-09-19T12:56:45;100775.78;;;24.27;40.59
62710;BME280;48770;51.624;5.886;2023-09-19T12:59:13;100792.13;;;24.25;40.62
62710;BME280;48770;51.624;5.886;2023-09-19T13:01:42;100808.88;;;24.25;40.37
62710;BME280;48770;51.624;5.886;2023-09-19T13:04:17;100794.13;;;24.25;40.60
62710;BME280;48770;51.624;5.886;2023-09-19T13:06:47;100794.13;;;24.25;40.30
62710;BME280;48770;51.624;5.886;2023-09-19T13:09:15;100789.72;;;24.24;40.43
62710;BME280;48770;51.624;5.886;2023-09-19T13:11:45;100792.50;;;24.24;40.69
62710;BME280;48770;51.624;5.886;2023-09-19T13:14:22;100790.09;;;24.22;40.31
62710;BME280;48770;51.624;5.886;2023-09-19T13:17:04;100792.88;;;24.22;40.41
62710;BME280;48770;51.624;5.886;2023-09-19T13:19:35;100775.69;;;24.20;40.70
62710;BME280;48770;51.624;5.886;2023-09-19T13:22:01;100790.09;;;24.22;40.65
62710;BME280;48770;51.624;5.886;2023-09-19T13:24:27;100779.34;;;24.24;40.81
62710;BME280;48770;51.624;5.886;2023-09-19T13:26:55;100783.75;;;24.25;40.53
62710;BME280;48770;51.624;5.886;2023-09-19T13:29:20;100796.09;;;24.24;40.65
62710;BME280;48770;51.624;5.886;2023-09-19T13:31:47;100783.75;;;24.25;40.87
62710;BME280;48770;51.624;5.886;2023-09-19T13:34:12;100786.91;;;24.24;40.90
62710;BME280;48770;51.624;5.886;2023-09-19T13:36:40;100802.88;;;24.23;40.76
62710;BME280;48770;51.624;5.886;2023-09-19T13:39:06;100779.72;;;24.23;40.62
62710;BME280;48770;51.624;5.886;2023-09-19T13:41:34;100784.50;;;24.22;40.56
62710;BME280;48770;51.624;5.886;2023-09-19T13:44:02;100792.44;;;24.20;40.69
62710;BME280;48770;51.624;5.886;2023-09-19T13:46:27;100788.81;;;24.20;40.79